sensor_id;sensor_type;location;lat;lon;timestamp;pressure;altitude;pressure_sealevel;temperature;humidity
3206;BME280;1615;53.602;11.418;2022-11-15T00:00:14;100891.41;;;8.69;100.00
3206;BME280;1615;53.602;11.418;2022-11-15T00:02:39;100900.97;;;8.72;100.00
3206;BME280;1615;53.602;11.418;2022-11-15T00:05:05;100848.06;;;8.43;100.00
3206;BME280;1615;53.602;11.418;2022-11-15T00:07:30;100894.97;;;8.75;100.00
3206;BME280;1615;53.602;11.418;2022-11-15T00:09:56;100893.84;;;8.76;100.00
3206;BME280;1615;53.602;11.418;2022-11-15T00:12:21;100897.13;;;8.78;100.00
3206;BME280;1615;53.602;11.418;2022-11-15T00:14:46;100896.03;;;8.79;100.00
3206;BME280;1615;53.602;11.418;2022-11-15T00:17:11;100893.84;;;8.81;100.00
3206;BME280;1615;53.602;11.418;2022-11-15T00:19:37;100902.84;;;8.76;100.00
3206;BME280;1615;53.602;11.418;2022-11-15T00:22:02;100891.38;;;8.79;100.00
3206;BME280;1615;53.602;11.418;2022-11-15T00:24:27;100908.31;;;8.76;100.00
3206;BME280;1615;53.602;11.418;2022-11-15T00:26:53;100893.59;;;8.72;100.00
3206;BME280;1615;53.602;11.418;2022-11-15T00:29:18;100843.97;;;8.40;100.00
3206;BME280;1615;53.602;11.418;2022-11-15T00:31:43;100890.06;;;8.67;100.00
3206;BME280;1615;53.602;11.418;2022-11-15T00:34:09;100888.41;;;8.66;100.00
3206;BME280;1615;53.602;11.418;2022-11-15T00:36:35;100882.94;;;8.71;100.00
3206;BME280;1615;53.602;11.418;2022-11-15T00:39:00;100881.31;;;8.70;100.00
3206;BME280;1615;53.602;11.418;2022-11-15T00:41:28;100872.56;;;8.68;100.00
3206;BME280;1615;53.602;11.418;2022-11-15T00:43:53;100861.38;;;8.59;100.00
3206;BME280;1615;53.602;11.418;2022-11-15T00:46:18;100857.84;;;8.59;100.00
3206;BME280;1615;53.602;11.418;2022-11-15T00:48:44;100846.38;;;8.52;100.00
3206;BME280;1615;53.602;11.418;2022-11-15T00:51:09;100841.75;;;8.52;100.00
3206;BME280;1615;53.602;11.418;2022-11-15T00:53:34;100852.38;;;8.54;100.00
3206;BME280;1615;53.602;11.418;2022-11-15T00:56:00;100851.81;;;8.62;100.00
3206;BME280;1615;53.602;11.418;2022-11-15T00:58:25;100825.66;;;8.36;100.00
3206;BME280;1615;53.602;11.418;2022-11-15T01:00:50;100838.19;;;8.47;100.00
3206;BME280;1615;53.602;11.418;2022-11-15T01:03:16;100851.81;;;8.57;100.00
3206;BME280;1615;53.602;11.418;2022-11-15T01:05:41;100757.75;;;7.94;100.00
3206;BME280;1615;53.602;11.418;2022-11-15T01:08:12;100851.84;;;8.52;100.00
3206;BME280;1615;53.602;11.418;2022-11-15T01:10:37;100719.81;;;7.78;100.00
3206;BME280;1615;53.602;11.418;2022-11-15T01:13:03;100842.53;;;8.53;100.00
3206;BME280;1615;53.602;11.418;2022-11-15T01:15:28;100758.53;;;8.05;100.00
3206;BME280;1615;53.602;11.418;2022-11-15T01:17:53;100832.19;;;8.50;100.00
3206;BME280;1615;53.602;11.418;2022-11-15T01:20:20;100738.09;;;7.97;100.00
3206;BME280;1615;53.602;11.418;2022-11-15T01:22:45;100831.06;;;8.51;100.00
3206;BME280;1615;53.602;11.418;2022-11-15T01:25:10;100766.16;;;8.18;100.00
3206;BME280;1615;53.602;11.418;2022-11-15T01:27:35;100827.25;;;8.52;100.00
3206;BME280;1615;53.602;11.418;2022-11-15T01:30:01;100833.81;;;8.51;100.00
3206;BME280;1615;53.602;11.418;2022-11-15T01:32:26;100813.09;;;8.35;100.00
3206;BME280;1615;53.602;11.418;2022-11-15T01:34:52;100842.28;;;8.44;100.00
3206;BME280;1615;53.602;11.418;2022-11-15T01:37:17;100828.38;;;8.41;100.00
3206;BME280;1615;53.602;11.418;2022-11-15T01:39:42;100817.44;;;8.41;100.00
3206;BME280;1615;53.602;11.418;2022-11-15T01:42:13;100828.94;;;8.43;100.00
3206;BME280;1615;53.602;11.418;2022-11-15T01:44:47;100821.81;;;8.37;100.00
3206;BME280;1615;53.602;11.418;2022-11-15T01:47:16;100815.84;;;8.30;100.00
3206;BME280;1615;53.602;11.418;2022-11-15T01:49:54;100810.91;;;8.37;100.00
3206;BME280;1615;53.602;11.418;2022-11-15T01:52:22;100805.47;;;8.32;100.00
3206;BME280;1615;53.602;11.418;2022-11-15T01:54:53;100825.41;;;8.32;100.00
3206;BME280;1615;53.602;11.418;2022-11-15T01:57:20;100814.19;;;8.34;100.00
3206;BME280;1615;53.602;11.418;2022-11-15T01:59:46;100739.47;;;7.95;100.00
3206;BME280;1615;53.602;11.418;2022-11-15T02:02:12;100818.03;;;8.33;100.00
3206;BME280;1615;53.602;11.418;2022-11-15T02:04:46;100813.09;;;8.35;100.00
3206;BME280;1615;53.602;11.418;2022-11-15T02:07:15;100804.38;;;8.33;100.00
3206;BME280;1615;53.602;11.418;2022-11-15T02:09:40;100801.09;;;8.31;100.00
3206;BME280;1615;53.602;11.418;2022-11-15T02:12:07;100807.38;;;8.31;100.00
3206;BME280;1615;53.602;11.418;2022-11-15T02:14:34;100796.47;;;8.26;100.00
3206;BME280;1615;53.602;11.418;2022-11-15T02:17:22;100763.47;;;7.88;100.00
3206;BME280;1615;53.602;11.418;2022-11-15T02:20:03;100795.09;;;8.24;100.00
3206;BME280;1615;53.602;11.418;2022-11-15T02:23:12;100717.16;;;7.58;100.00
3206;BME280;1615;53.602;11.418;2022-11-15T02:34:19;100795.66;;;8.11;100.00
3206;BME280;1615;53.602;11.418;2022-11-15T02:42:26;100802.50;;;8.08;100.00
3206;BME280;1615;53.602;11.418;2022-11-15T02:45:18;100813.13;;;8.05;100.00
3206;BME280;1615;53.602;11.418;2022-11-15T02:47:46;100797.31;;;8.02;100.00
3206;BME280;1615;53.602;11.418;2022-11-15T02:50:16;100773.28;;;7.89;100.00
3206;BME280;1615;53.602;11.418;2022-11-15T02:52:45;100798.41;;;8.06;100.00
3206;BME280;1615;53.602;11.418;2022-11-15T02:55:33;100798.41;;;8.06;100.00
3206;BME280;1615;53.602;11.418;2022-11-15T03:04:26;100798.94;;;7.93;100.00
3206;BME280;1615;53.602;11.418;2022-11-15T03:06:57;100809.34;;;7.91;100.00
3206;BME280;1615;53.602;11.418;2022-11-15T03:09:48;100768.16;;;7.67;100.00
3206;BME280;1615;53.602;11.418;2022-11-15T03:12:25;100803.63;;;7.87;100.00
3206;BME280;1615;53.602;11.418;2022-11-15T03:15:01;100795.16;;;7.84;100.00
3206;BME280;1615;53.602;11.418;2022-11-15T03:17:41;100797.88;;;7.84;100.00
3206;BME280;1615;53.602;11.418;2022-11-15T03:20:12;100795.69;;;7.86;100.00
3206;BME280;1615;53.602;11.418;2022-11-15T03:22:42;100798.44;;;7.86;100.00
3206;BME280;1615;53.602;11.418;2022-11-15T03:25:10;100797.31;;;7.87;100.00
3206;BME280;1615;53.602;11.418;2022-11-15T03:27:42;100793.75;;;7.86;100.00
3206;BME280;1615;53.602;11.418;2022-11-15T03:30:09;100791.88;;;7.82;100.00
3206;BME280;1615;53.602;11.418;2022-11-15T03:32:40;100795.69;;;7.81;100.00
3206;BME280;1615;53.602;11.418;2022-11-15T03:35:22;100793.50;;;7.83;100.00
3206;BME280;1615;53.602;11.418;2022-11-15T03:38:08;100788.59;;;7.85;100.00
3206;BME280;1615;53.602;11.418;2022-11-15T03:40:45;100789.69;;;7.84;100.00
3206;BME280;1615;53.602;11.418;2022-11-15T03:45:44;100747.69;;;7.50;100.00
3206;BME280;1615;53.602;11.418;2022-11-15T03:48:24;100792.44;;;7.84;100.00
3206;BME280;1615;53.602;11.418;2022-11-15T03:50:51;100803.88;;;7.86;100.00
3206;BME280;1615;53.602;11.418;2022-11-15T03:53:17;100798.41;;;7.91;100.00
3206;BME280;1615;53.602;11.418;2022-11-15T03:55:42;100806.59;;;7.91;100.00
3206;BME280;1615;53.602;11.418;2022-11-15T03:58:08;100719.06;;;7.32;100.00
3206;BME280;1615;53.602;11.418;2022-11-15T04:00:33;100795.44;;;7.87;100.00
3206;BME280;1615;53.602;11.418;2022-11-15T04:02:58;100799.53;;;7.90;100.00
3206;BME280;1615;53.602;11.418;2022-11-15T04:05:24;100809.88;;;7.83;100.00
3206;BME280;1615;53.602;11.418;2022-11-15T04:07:49;100769.78;;;7.68;100.00
3206;BME280;1615;53.602;11.418;2022-11-15T04:10:15;100770.59;;;7.69;100.00
3206;BME280;1615;53.602;11.418;2022-11-15T04:12:43;100794.34;;;7.83;100.00
3206;BME280;1615;53.602;11.418;2022-11-15T04:15:21;100777.69;;;7.70;100.00
3206;BME280;1615;53.602;11.418;2022-11-15T04:17:49;100795.97;;;7.84;100.00
3206;BME280;1615;53.602;11.418;2022-11-15T04:20:26;100788.03;;;7.83;100.00
3206;BME280;1615;53.602;11.418;2022-11-15T04:23:12;100858.47;;;7.86;100.00
3206;BME280;1615;53.602;11.418;2022-11-15T04:25:59;100787.50;;;7.86;100.00
3206;BME280;1615;53.602;11.418;2022-11-15T04:28:25;100724.50;;;7.37;100.00
3206;BME280;1615;53.602;11.418;2022-11-15T04:30:51;100734.59;;;7.57;100.00
3206;BME280;1615;53.602;11.418;2022-11-15T04:33:16;100786.41;;;7.82;100.00
3206;BME280;1615;53.602;11.418;2022-11-15T04:35:42;100780.41;;;7.80;100.00
3206;BME280;1615;53.602;11.418;2022-11-15T04:38:10;100774.13;;;7.84;100.00
3206;BME280;1615;53.602;11.418;2022-11-15T04:40:36;100690.72;;;7.33;100.00
3206;BME280;1615;53.602;11.418;2022-11-15T04:43:02;100668.34;;;7.26;100.00
3206;BME280;1615;53.602;11.418;2022-11-15T04:45:28;100778.22;;;7.92;100.00
3206;BME280;1615;53.602;11.418;2022-11-15T04:47:53;100777.09;;;8.03;100.00
3206;BME280;1615;53.602;11.418;2022-11-15T04:50:18;100707.56;;;7.75;100.00
3206;BME280;1615;53.602;11.418;2022-11-15T04:52:51;100788.00;;;8.23;100.00
3206;BME280;1615;53.602;11.418;2022-11-15T04:55:17;100766.69;;;8.30;100.00
3206;BME280;1615;53.602;11.418;2022-11-15T04:57:42;100371.88;;;5.95;100.00
3206;BME280;1615;53.602;11.418;2022-11-15T05:00:11;100755.78;;;8.25;100.00
3206;BME280;1615;53.602;11.418;2022-11-15T05:02:37;100769.97;;;8.32;100.00
3206;BME280;1615;53.602;11.418;2022-11-15T05:05:21;100766.13;;;8.33;100.00
3206;BME280;1615;53.602;11.418;2022-11-15T05:07:46;100772.69;;;8.32;100.00
3206;BME280;1615;53.602;11.418;2022-11-15T05:10:12;100769.13;;;8.36;100.00
3206;BME280;1615;53.602;11.418;2022-11-15T05:12:37;100797.22;;;8.42;100.00
3206;BME280;1615;53.602;11.418;2022-11-15T05:15:03;100760.91;;;8.46;100.00
3206;BME280;1615;53.602;11.418;2022-11-15T05:17:28;100770.41;;;8.59;100.00
3206;BME280;1615;53.602;11.418;2022-11-15T05:19:53;100725.94;;;8.38;100.00
3206;BME280;1615;53.602;11.418;2022-11-15T05:22:19;100769.56;;;8.63;100.00
3206;BME280;1615;53.602;11.418;2022-11-15T05:24:45;100766.00;;;8.63;100.00
3206;BME280;1615;53.602;11.418;2022-11-15T05:27:10;100766.00;;;8.63;100.00
3206;BME280;1615;53.602;11.418;2022-11-15T05:29:35;100763.81;;;8.65;100.00
3206;BME280;1615;53.602;11.418;2022-11-15T05:32:01;100760.75;;;8.71;100.00
3206;BME280;1615;53.602;11.418;2022-11-15T05:34:28;100758.84;;;8.72;100.00
3206;BME280;1615;53.602;11.418;2022-11-15T05:36:53;100708.72;;;8.48;100.00
3206;BME280;1615;53.602;11.418;2022-11-15T05:39:18;100765.63;;;8.84;100.00
3206;BME280;1615;53.602;11.418;2022-11-15T05:41:47;100770.22;;;8.89;100.00
3206;BME280;1615;53.602;11.418;2022-11-15T05:44:17;100763.94;;;8.93;100.00
3206;BME280;1615;53.602;11.418;2022-11-15T05:46:43;100740.72;;;8.91;100.00
3206;BME280;1615;53.602;11.418;2022-11-15T05:49:11;100739.03;;;8.95;100.00
3206;BME280;1615;53.602;11.418;2022-11-15T05:51:38;100760.25;;;9.13;100.00
3206;BME280;1615;53.602;11.418;2022-11-15T05:54:04;100745.00;;;9.07;100.00
3206;BME280;1615;53.602;11.418;2022-11-15T05:56:30;100698.09;;;8.85;100.00
3206;BME280;1615;53.602;11.418;2022-11-15T05:58:58;100773.25;;;9.31;100.00
3206;BME280;1615;53.602;11.418;2022-11-15T06:01:26;100764.44;;;9.39;100.00
3206;BME280;1615;53.602;11.418;2022-11-15T06:03:52;100769.88;;;9.44;100.00
3206;BME280;1615;53.602;11.418;2022-11-15T06:06:17;100768.19;;;9.48;100.00
3206;BME280;1615;53.602;11.418;2022-11-15T06:08:42;100767.59;;;9.56;100.00
3206;BME280;1615;53.602;11.418;2022-11-15T06:11:08;100760.44;;;9.60;100.00
3206;BME280;1615;53.602;11.418;2022-11-15T06:13:33;100744.09;;;9.50;100.00
3206;BME280;1615;53.602;11.418;2022-11-15T06:15:59;100766.41;;;9.67;100.00
3206;BME280;1615;53.602;11.418;2022-11-15T06:18:25;100764.19;;;9.69;100.00
3206;BME280;1615;53.602;11.418;2022-11-15T06:20:51;100765.28;;;9.68;100.00
3206;BME280;1615;53.602;11.418;2022-11-15T06:23:16;100769.88;;;9.72;100.00
3206;BME280;1615;53.602;11.418;2022-11-15T06:25:41;100777.81;;;9.74;100.00
3206;BME280;1615;53.602;11.418;2022-11-15T06:28:07;100682.53;;;9.19;100.00
3206;BME280;1615;53.602;11.418;2022-11-15T06:30:33;100788.69;;;9.84;100.00
3206;BME280;1615;53.602;11.418;2022-11-15T06:33:02;100796.03;;;9.88;100.00
3206;BME280;1615;53.602;11.418;2022-11-15T06:35:29;100785.34;;;9.92;100.00
3206;BME280;1615;53.602;11.418;2022-11-15T06:37:55;100791.84;;;9.96;100.00
3206;BME280;1615;53.602;11.418;2022-11-15T06:40:21;100804.19;;;9.93;100.00
3206;BME280;1615;53.602;11.418;2022-11-15T06:42:46;100775.56;;;9.81;100.00
3206;BME280;1615;53.602;11.418;2022-11-15T06:45:12;100784.22;;;9.93;100.00
3206;BME280;1615;53.602;11.418;2022-11-15T06:47:47;100787.19;;;9.96;100.00
3206;BME280;1615;53.602;11.418;2022-11-15T06:50:13;100775.50;;;9.86;100.00
3206;BME280;1615;53.602;11.418;2022-11-15T06:52:38;100718.97;;;9.43;100.00
3206;BME280;1615;53.602;11.418;2022-11-15T06:55:04;100796.16;;;10.02;100.00
3206;BME280;1615;53.602;11.418;2022-11-15T06:57:29;100760.59;;;9.73;100.00
3206;BME280;1615;53.602;11.418;2022-11-15T06:59:54;100796.28;;;9.92;100.00
3206;BME280;1615;53.602;11.418;2022-11-15T07:02:20;100813.19;;;9.99;100.00
3206;BME280;1615;53.602;11.418;2022-11-15T07:04:45;100810.16;;;10.00;100.00
3206;BME280;1615;53.602;11.418;2022-11-15T07:07:10;100815.34;;;10.02;100.00
3206;BME280;1615;53.602;11.418;2022-11-15T07:09:36;100814.25;;;10.03;100.00
3206;BME280;1615;53.602;11.418;2022-11-15T07:12:01;100801.69;;;9.97;100.00
3206;BME280;1615;53.602;11.418;2022-11-15T07:14:27;100821.59;;;10.12;100.00
3206;BME280;1615;53.602;11.418;2022-11-15T07:16:52;100772.50;;;9.87;100.00
3206;BME280;1615;53.602;11.418;2022-11-15T07:19:17;100837.88;;;10.27;100.00
3206;BME280;1615;53.602;11.418;2022-11-15T07:21:42;100828.78;;;10.32;100.00
3206;BME280;1615;53.602;11.418;2022-11-15T07:24:08;100839.16;;;10.35;100.00
3206;BME280;1615;53.602;11.418;2022-11-15T07:26:33;100830.91;;;10.40;100.00
3206;BME280;1615;53.602;11.418;2022-11-15T07:28:58;100827.63;;;10.38;100.00
3206;BME280;1615;53.602;11.418;2022-11-15T07:31:24;100792.16;;;10.23;100.00
3206;BME280;1615;53.602;11.418;2022-11-15T07:33:50;100804.94;;;10.32;100.00
3206;BME280;1615;53.602;11.418;2022-11-15T07:36:15;100830.75;;;10.50;100.00
3206;BME280;1615;53.602;11.418;2022-11-15T07:38:41;100826.09;;;10.50;100.00
3206;BME280;1615;53.602;11.418;2022-11-15T07:41:06;100825.28;;;10.50;100.00
3206;BME280;1615;53.602;11.418;2022-11-15T07:43:32;100721.88;;;9.85;100.00
3206;BME280;1615;53.602;11.418;2022-11-15T07:46:07;100825.22;;;10.55;100.00
3206;BME280;1615;53.602;11.418;2022-11-15T07:48:35;100812.34;;;10.55;100.00
3206;BME280;1615;53.602;11.418;2022-11-15T07:51:00;100825.16;;;10.60;100.00
3206;BME280;1615;53.602;11.418;2022-11-15T07:53:25;100815.38;;;10.54;100.00
3206;BME280;1615;53.602;11.418;2022-11-15T07:55:51;100822.13;;;10.61;100.00
3206;BME280;1615;53.602;11.418;2022-11-15T07:58:18;100822.13;;;10.61;100.00
3206;BME280;1615;53.602;11.418;2022-11-15T08:00:44;100789.13;;;10.48;100.00
3206;BME280;1615;53.602;11.418;2022-11-15T08:03:15;100817.38;;;10.72;100.00
3206;BME280;1615;53.602;11.418;2022-11-15T08:05:42;100824.25;;;10.69;100.00
3206;BME280;1615;53.602;11.418;2022-11-15T08:08:08;100811.28;;;10.75;100.00
3206;BME280;1615;53.602;11.418;2022-11-15T08:10:35;100797.13;;;10.68;100.00
3206;BME280;1615;53.602;11.418;2022-11-15T08:13:08;100811.28;;;10.75;100.00
3206;BME280;1615;53.602;11.418;2022-11-15T08:15:35;100754.69;;;10.42;100.00
3206;BME280;1615;53.602;11.418;2022-11-15T08:18:03;100808.59;;;10.70;100.00
3206;BME280;1615;53.602;11.418;2022-11-15T08:20:30;100816.88;;;10.65;100.00
3206;BME280;1615;53.602;11.418;2022-11-15T08:22:57;100731.06;;;10.22;100.00
3206;BME280;1615;53.602;11.418;2022-11-15T08:25:23;100809.31;;;10.80;100.00
3206;BME280;1615;53.602;11.418;2022-11-15T08:27:52;100809.53;;;10.84;100.00
3206;BME280;1615;53.602;11.418;2022-11-15T08:30:17;100804.78;;;10.89;100.00
3206;BME280;1615;53.602;11.418;2022-11-15T08:32:43;100812.38;;;10.97;100.00
3206;BME280;1615;53.602;11.418;2022-11-15T08:35:11;100673.44;;;10.09;100.00
3206;BME280;1615;53.602;11.418;2022-11-15T08:37:36;100752.66;;;10.71;100.00
3206;BME280;1615;53.602;11.418;2022-11-15T08:40:02;100809.41;;;11.12;100.00
3206;BME280;1615;53.602;11.418;2022-11-15T08:42:27;100718.19;;;10.65;100.00
3206;BME280;1615;53.602;11.418;2022-11-15T08:44:53;100808.16;;;11.23;100.00
3206;BME280;1615;53.602;11.418;2022-11-15T08:47:18;100752.38;;;10.91;100.00
3206;BME280;1615;53.602;11.418;2022-11-15T08:49:43;100728.81;;;10.90;100.00
3206;BME280;1615;53.602;11.418;2022-11-15T08:52:09;100802.88;;;11.45;100.00
3206;BME280;1615;53.602;11.418;2022-11-15T08:54:34;100797.59;;;11.49;100.00
3206;BME280;1615;53.602;11.418;2022-11-15T08:57:00;100759.94;;;11.36;100.00
3206;BME280;1615;53.602;11.418;2022-11-15T08:59:25;100793.75;;;11.68;100.00
3206;BME280;1615;53.602;11.418;2022-11-15T09:01:53;100730.75;;;11.40;100.00
3206;BME280;1615;53.602;11.418;2022-11-15T09:04:19;100804.69;;;11.87;100.00
3206;BME280;1615;53.602;11.418;2022-11-15T09:06:44;100803.56;;;11.88;100.00
3206;BME280;1615;53.602;11.418;2022-11-15T09:09:09;100768.00;;;11.64;100.00
3206;BME280;1615;53.602;11.418;2022-11-15T09:11:38;100795.38;;;12.01;100.00
3206;BME280;1615;53.602;11.418;2022-11-15T09:14:03;100805.97;;;12.08;100.00
3206;BME280;1615;53.602;11.418;2022-11-15T09:16:30;100803.03;;;12.18;100.00
3206;BME280;1615;53.602;11.418;2022-11-15T09:18:56;100806.72;;;12.27;100.00
3206;BME280;1615;53.602;11.418;2022-11-15T09:21:21;100811.59;;;12.30;100.00
3206;BME280;1615;53.602;11.418;2022-11-15T09:23:50;100797.97;;;12.38;100.00
3206;BME280;1615;53.602;11.418;2022-11-15T09:26:17;100757.84;;;12.24;100.00
3206;BME280;1615;53.602;11.418;2022-11-15T09:28:43;100785.16;;;12.47;100.00
3206;BME280;1615;53.602;11.418;2022-11-15T09:31:09;100794.31;;;12.70;100.00
3206;BME280;1615;53.602;11.418;2022-11-15T09:33:37;100805.13;;;12.80;100.00
3206;BME280;1615;53.602;11.418;2022-11-15T09:36:06;100788.63;;;12.80;100.00
3206;BME280;1615;53.602;11.418;2022-11-15T09:38:32;100750.53;;;12.60;100.00
3206;BME280;1615;53.602;11.418;2022-11-15T09:49:09;100781.06;;;12.72;100.00
3206;BME280;1615;53.602;11.418;2022-11-15T09:51:39;100707.16;;;12.30;100.00
3206;BME280;1615;53.602;11.418;2022-11-15T09:56:52;100780.47;;;13.02;100.00
3206;BME280;1615;53.602;11.418;2022-11-15T10:05:04;100784.28;;;13.28;100.00
3206;BME280;1615;53.602;11.418;2022-11-15T10:07:44;100783.16;;;13.51;100.00
3206;BME280;1615;53.602;11.418;2022-11-15T10:10:18;100683.19;;;13.06;100.00
3206;BME280;1615;53.602;11.418;2022-11-15T10:12:47;100794.06;;;13.78;100.00
3206;BME280;1615;53.602;11.418;2022-11-15T10:15:16;100781.78;;;13.84;100.00
3206;BME280;1615;53.602;11.418;2022-11-15T10:18:06;100777.25;;;13.88;100.00
3206;BME280;1615;53.602;11.418;2022-11-15T10:20:44;100775.00;;;13.90;100.00
3206;BME280;1615;53.602;11.418;2022-11-15T10:23:14;100778.41;;;13.87;100.00
3206;BME280;1615;53.602;11.418;2022-11-15T10:25:41;100731.31;;;13.53;100.00
3206;BME280;1615;53.602;11.418;2022-11-15T10:28:17;100787.28;;;13.84;100.00
3206;BME280;1615;53.602;11.418;2022-11-15T10:30:48;100763.94;;;13.59;100.00
3206;BME280;1615;53.602;11.418;2022-11-15T10:33:25;100776.75;;;13.64;100.00
3206;BME280;1615;53.602;11.418;2022-11-15T10:36:16;100773.31;;;13.80;100.00
3206;BME280;1615;53.602;11.418;2022-11-15T10:41:14;100757.94;;;13.79;100.00
3206;BME280;1615;53.602;11.418;2022-11-15T10:43:39;100756.16;;;13.83;100.00
3206;BME280;1615;53.602;11.418;2022-11-15T10:46:35;100753.13;;;13.93;100.00
3206;BME280;1615;53.602;11.418;2022-11-15T10:49:18;100747.66;;;14.02;100.00
3206;BME280;1615;53.602;11.418;2022-11-15T10:51:54;100742.19;;;14.10;100.00
3206;BME280;1615;53.602;11.418;2022-11-15T10:57:12;100634.38;;;13.73;100.00
3206;BME280;1615;53.602;11.418;2022-11-15T10:59:42;100732.78;;;14.42;100.00
3206;BME280;1615;53.602;11.418;2022-11-15T11:02:45;100728.56;;;14.36;100.00
3206;BME280;1615;53.602;11.418;2022-11-15T11:05:28;100723.44;;;14.60;100.00
3206;BME280;1615;53.602;11.418;2022-11-15T11:08:04;100729.47;;;14.70;100.00
3206;BME280;1615;53.602;11.418;2022-11-15T11:10:29;100721.84;;;14.76;100.00
3206;BME280;1615;53.602;11.418;2022-11-15T11:12:55;100720.69;;;14.77;100.00
3206;BME280;1615;53.602;11.418;2022-11-15T11:15:23;100720.22;;;14.75;100.00
3206;BME280;1615;53.602;11.418;2022-11-15T11:18:08;100717.28;;;14.63;100.00
3206;BME280;1615;53.602;11.418;2022-11-15T11:20:40;100679.28;;;14.60;100.00
3206;BME280;1615;53.602;11.418;2022-11-15T11:23:38;100711.00;;;14.88;100.00
3206;BME280;1615;53.602;11.418;2022-11-15T11:31:58;100604.28;;;14.24;100.00
3206;BME280;1615;53.602;11.418;2022-11-15T11:34:54;100682.25;;;15.06;100.00
3206;BME280;1615;53.602;11.418;2022-11-15T11:40:44;100683.56;;;15.42;100.00
3206;BME280;1615;53.602;11.418;2022-11-15T11:43:30;100687.94;;;15.52;100.00
3206;BME280;1615;53.602;11.418;2022-11-15T11:48:43;100615.81;;;15.19;100.00
3206;BME280;1615;53.602;11.418;2022-11-15T11:51:15;100671.84;;;15.54;100.00
3206;BME280;1615;53.602;11.418;2022-11-15T11:53:56;100669.56;;;15.56;100.00
3206;BME280;1615;53.602;11.418;2022-11-15T11:56:26;100670.88;;;15.50;100.00
3206;BME280;1615;53.602;11.418;2022-11-15T11:58:55;100673.59;;;15.58;100.00
3206;BME280;1615;53.602;11.418;2022-11-15T12:01:32;100655.91;;;15.51;100.00
3206;BME280;1615;53.602;11.418;2022-11-15T12:04:04;100672.66;;;15.63;100.00
3206;BME280;1615;53.602;11.418;2022-11-15T12:09:38;100668.59;;;15.52;100.00
3206;BME280;1615;53.602;11.418;2022-11-15T12:12:16;100670.06;;;15.49;100.00
3206;BME280;1615;53.602;11.418;2022-11-15T12:14:51;100673.16;;;15.48;100.00
3206;BME280;1615;53.602;11.418;2022-11-15T12:17:22;100654.00;;;15.43;100.00
3206;BME280;1615;53.602;11.418;2022-11-15T12:19:49;100651.84;;;15.48;100.00
3206;BME280;1615;53.602;11.418;2022-11-15T12:22:21;100560.97;;;14.92;100.00
3206;BME280;1615;53.602;11.418;2022-11-15T12:25:02;100652.19;;;15.47;100.00
3206;BME280;1615;53.602;11.418;2022-11-15T12:27:35;100650.22;;;15.47;100.00
3206;BME280;1615;53.602;11.418;2022-11-15T12:30:20;100658.03;;;15.54;100.00
3206;BME280;1615;53.602;11.418;2022-11-15T12:32:54;100649.38;;;15.64;100.00
3206;BME280;1615;53.602;11.418;2022-11-15T12:35:42;100642.53;;;15.70;100.00
3206;BME280;1615;53.602;11.418;2022-11-15T12:41:15;100635.56;;;15.64;100.00
3206;BME280;1615;53.602;11.418;2022-11-15T12:43:42;100648.88;;;15.62;100.00
3206;BME280;1615;53.602;11.418;2022-11-15T12:48:58;100631.53;;;15.53;100.00
3206;BME280;1615;53.602;11.418;2022-11-15T13:27:57;100627.34;;;15.47;100.00
3206;BME280;1615;53.602;11.418;2022-11-15T13:30:31;100622.91;;;15.46;100.00
3206;BME280;1615;53.602;11.418;2022-11-15T13:33:00;100572.44;;;15.20;100.00
3206;BME280;1615;53.602;11.418;2022-11-15T13:35:36;100544.84;;;15.03;100.00
3206;BME280;1615;53.602;11.418;2022-11-15T13:38:04;100613.69;;;15.42;100.00
3206;BME280;1615;53.602;11.418;2022-11-15T13:40:35;100618.72;;;15.40;100.00
3206;BME280;1615;53.602;11.418;2022-11-15T13:43:23;100592.25;;;15.22;100.00
3206;BME280;1615;53.602;11.418;2022-11-15T13:46:22;100612.72;;;15.21;100.00
3206;BME280;1615;53.602;11.418;2022-11-15T13:48:57;100609.47;;;15.19;100.00
3206;BME280;1615;53.602;11.418;2022-11-15T13:56:37;100592.28;;;15.05;100.00
3206;BME280;1615;53.602;11.418;2022-11-15T13:59:15;100605.94;;;15.10;100.00
3206;BME280;1615;53.602;11.418;2022-11-15T14:01:42;100613.88;;;15.03;100.00
3206;BME280;1615;53.602;11.418;2022-11-15T14:04:13;100603.50;;;15.00;100.00
3206;BME280;1615;53.602;11.418;2022-11-15T14:06:55;100558.22;;;14.67;100.00
3206;BME280;1615;53.602;11.418;2022-11-15T14:09:38;100602.84;;;14.94;100.00
3206;BME280;1615;53.602;11.418;2022-11-15T14:14:47;100582.41;;;14.70;100.00
3206;BME280;1615;53.602;11.418;2022-11-15T14:17:21;100600.56;;;14.71;100.00
3206;BME280;1615;53.602;11.418;2022-11-15T14:19:49;100591.34;;;14.67;100.00
3206;BME280;1615;53.602;11.418;2022-11-15T14:22:23;100596.34;;;14.65;100.00
3206;BME280;1615;53.602;11.418;2022-11-15T14:25:14;100598.13;;;14.61;100.00
3206;BME280;1615;53.602;11.418;2022-11-15T14:27:41;100594.91;;;14.59;100.00
3206;BME280;1615;53.602;11.418;2022-11-15T14:30:14;100606.25;;;14.49;100.00
3206;BME280;1615;53.602;11.418;2022-11-15T14:32:47;100594.22;;;14.45;100.00
3206;BME280;1615;53.602;11.418;2022-11-15T14:35:20;100587.41;;;14.34;100.00
3206;BME280;1615;53.602;11.418;2022-11-15T14:37:46;100574.56;;;14.21;100.00
3206;BME280;1615;53.602;11.418;2022-11-15T14:40:15;100584.59;;;14.17;100.00
3206;BME280;1615;53.602;11.418;2022-11-15T14:42:41;100590.75;;;14.14;100.00
3206;BME280;1615;53.602;11.418;2022-11-15T14:45:18;100586.34;;;14.13;100.00
3206;BME280;1615;53.602;11.418;2022-11-15T14:47:45;100582.13;;;14.07;100.00
3206;BME280;1615;53.602;11.418;2022-11-15T14:50:16;100584.22;;;14.01;100.00
3206;BME280;1615;53.602;11.418;2022-11-15T14:52:41;100570.75;;;14.00;100.00
3206;BME280;1615;53.602;11.418;2022-11-15T14:55:18;100577.41;;;13.99;100.00
3206;BME280;1615;53.602;11.418;2022-11-15T14:57:45;100571.41;;;13.97;100.00